createdAt,value
2019-03-09T00:02:09.362Z,4.64
2019-03-09T00:07:12.289Z,4.66
2019-03-09T00:12:15.498Z,4.66
2019-03-09T00:17:18.307Z,4.85
2019-03-09T00:22:21.198Z,4.73
2019-03-09T00:27:30.880Z,4.74
2019-03-09T00:32:33.706Z,4.77
2019-03-09T00:37:37.326Z,4.75
2019-03-09T00:42:41.928Z,4.73
2019-03-09T00:47:44.335Z,4.77
2019-03-09T00:52:46.898Z,4.93
2019-03-09T00:57:50.463Z,4.81
2019-03-09T01:02:53.408Z,4.95
2019-03-09T01:07:55.995Z,4.84
2019-03-09T01:12:59.140Z,4.98
2019-03-09T01:18:01.982Z,5.01
2019-03-09T01:23:04.842Z,5.05
2019-03-09T01:28:08.388Z,5.17
2019-03-09T01:33:11.365Z,5.25
2019-03-09T01:38:14.843Z,5.40
2019-03-09T01:43:18.752Z,5.40
2019-03-09T01:48:21.901Z,5.35
2019-03-09T01:53:24.437Z,5.04
2019-03-09T01:58:27.930Z,4.98
2019-03-09T02:03:30.722Z,4.87
2019-03-09T02:08:33.931Z,4.81
2019-03-09T02:13:36.835Z,5.03
2019-03-09T02:18:40.041Z,4.84
2019-03-09T02:23:43.251Z,4.74
2019-03-09T02:28:45.851Z,4.93
2019-03-09T02:33:49.063Z,4.93
2019-03-09T02:38:59.238Z,4.93
2019-03-09T02:44:02.440Z,4.98
2019-03-09T02:49:05.974Z,4.88
2019-03-09T02:54:09.112Z,4.86
2019-03-09T02:59:12.270Z,4.93
2019-03-09T03:04:16.861Z,4.88
2019-03-09T03:09:19.727Z,4.88
2019-03-09T03:14:23.203Z,5.06
2019-03-09T03:19:26.391Z,4.99
2019-03-09T03:24:29.357Z,5.06
2019-03-09T03:29:32.849Z,5.02
2019-03-09T03:34:36.053Z,4.99
2019-03-09T03:39:39.285Z,5.01
2019-03-09T03:44:45.483Z,4.98
2019-03-09T03:49:49.062Z,4.96
2019-03-09T03:54:52.147Z,5.03
2019-03-09T03:59:55.167Z,4.89
2019-03-09T04:04:57.721Z,4.90
2019-03-09T04:10:01.537Z,4.97
2019-03-09T04:15:05.578Z,4.92
2019-03-09T04:20:09.996Z,4.83
2019-03-09T04:25:13.781Z,4.90
2019-03-09T04:30:17.022Z,5.04
2019-03-09T04:35:20.240Z,4.99
2019-03-09T04:40:23.548Z,5.02
2019-03-09T04:45:27.069Z,4.92
2019-03-09T04:50:30.553Z,5.10
2019-03-09T04:55:33.034Z,5.19
2019-03-09T05:00:35.631Z,5.18
2019-03-09T05:05:38.463Z,5.20
2019-03-09T05:10:50.480Z,5.33
2019-03-09T05:15:53.692Z,5.44
2019-03-09T05:20:56.960Z,5.49
2019-03-09T05:26:00.215Z,5.57
2019-03-09T05:31:03.413Z,5.72
2019-03-09T05:36:05.924Z,5.85
2019-03-09T05:41:09.430Z,5.91
2019-03-09T05:46:12.954Z,5.93
2019-03-09T05:51:15.508Z,6.10
2019-03-09T05:56:18.363Z,6.31
2019-03-09T06:01:21.353Z,6.32
2019-03-09T06:06:24.851Z,6.54
2019-03-09T06:11:28.481Z,6.47
2019-03-09T06:16:31.496Z,6.49
2019-03-09T06:21:34.653Z,6.63
2019-03-09T06:26:37.814Z,6.49
2019-03-09T06:31:43.045Z,6.51
2019-03-09T06:37:09.122Z,6.56
2019-03-09T06:42:39.490Z,6.58
2019-03-09T06:47:41.967Z,6.49
2019-03-09T06:52:44.858Z,6.57
2019-03-09T06:57:47.767Z,6.57
2019-03-09T07:02:50.936Z,6.49
2019-03-09T07:07:53.869Z,6.62
2019-03-09T07:12:56.785Z,6.50
2019-03-09T07:18:02.309Z,6.58
2019-03-09T07:23:05.689Z,6.54
2019-03-09T07:28:11.026Z,6.65
2019-03-09T07:33:13.909Z,6.67
2019-03-09T07:38:16.817Z,6.67
2019-03-09T07:43:19.765Z,6.76
2019-03-09T07:48:22.978Z,6.85
2019-03-09T07:53:26.355Z,7.00
2019-03-09T07:58:29.342Z,6.91
2019-03-09T08:03:32.983Z,6.98
2019-03-09T08:08:36.469Z,7.12
2019-03-09T08:13:39.716Z,7.13
2019-03-09T08:18:42.397Z,7.22
2019-03-09T08:23:45.655Z,7.28
2019-03-09T08:28:48.990Z,7.46
2019-03-09T08:33:52.126Z,7.38
2019-03-09T08:38:55.511Z,7.50
2019-03-09T08:43:58.757Z,7.71
2019-03-09T08:49:02.379Z,7.94
2019-03-09T08:54:05.750Z,7.80
2019-03-09T08:59:08.709Z,7.92
2019-03-09T09:04:12.318Z,8.17
2019-03-09T09:09:15.654Z,7.95
2019-03-09T09:14:18.810Z,7.92
2019-03-09T09:19:22.153Z,7.83
2019-03-09T09:24:25.718Z,7.65
2019-03-09T09:29:29.003Z,7.63
2019-03-09T09:34:32.201Z,7.50
2019-03-09T09:39:35.089Z,7.54
2019-03-09T09:44:38.403Z,7.69
2019-03-09T09:49:41.912Z,7.49
2019-03-09T09:54:45.149Z,7.06
2019-03-09T09:59:48.654Z,7.00
2019-03-09T10:04:51.998Z,6.99
2019-03-09T10:09:55.599Z,7.18
2019-03-09T10:14:59.096Z,7.45
2019-03-09T10:20:02.039Z,7.78
2019-03-09T10:25:05.392Z,7.69
2019-03-09T10:30:12.007Z,8.28
2019-03-09T10:35:16.726Z,8.16
2019-03-09T10:40:19.651Z,7.72
2019-03-09T10:45:22.095Z,7.55
2019-03-09T10:50:26.093Z,7.81
2019-03-09T10:55:29.426Z,8.13
2019-03-09T11:00:32.971Z,8.29
2019-03-09T11:05:36.549Z,8.48
2019-03-09T11:10:39.391Z,8.21
2019-03-09T11:15:42.641Z,8.41
2019-03-09T11:20:45.559Z,8.47
2019-03-09T11:25:49.062Z,9.01
2019-03-09T11:30:52.369Z,9.15
2019-03-09T11:35:55.951Z,8.82
2019-03-09T11:41:00.837Z,8.68
2019-03-09T11:46:04.634Z,8.39
2019-03-09T11:51:07.661Z,8.20
2019-03-09T11:56:10.562Z,8.17
2019-03-09T12:01:13.795Z,8.31
2019-03-09T12:06:17.791Z,8.51
2019-03-09T12:11:21.349Z,8.30
2019-03-09T12:16:24.910Z,8.17
2019-03-09T12:21:27.970Z,8.59
2019-03-09T12:26:32.015Z,8.70
2019-03-09T12:31:38.447Z,8.85
2019-03-09T12:36:41.657Z,8.52
2019-03-09T12:41:48.168Z,8.25
2019-03-09T12:46:51.976Z,8.37
2019-03-09T12:51:55.235Z,8.57
2019-03-09T12:56:58.563Z,8.40
2019-03-09T13:02:02.224Z,8.13
2019-03-09T13:07:05.496Z,8.00
2019-03-09T13:12:10.047Z,8.07
2019-03-09T13:17:13.606Z,7.98
2019-03-09T13:22:16.529Z,7.93
2019-03-09T13:27:19.709Z,8.02
2019-03-09T13:32:22.624Z,8.01
2019-03-09T13:37:26.153Z,7.88
2019-03-09T13:42:29.397Z,7.77
2019-03-09T13:47:32.680Z,7.67
2019-03-09T13:52:36.691Z,7.68
2019-03-09T13:57:40.221Z,7.75
2019-03-09T14:02:44.091Z,7.81
2019-03-09T14:07:50.205Z,7.71
2019-03-09T14:12:53.863Z,7.65
2019-03-09T14:17:57.664Z,7.68
2019-03-09T14:23:00.987Z,7.57
2019-03-09T14:28:04.285Z,7.56
2019-03-09T14:33:07.252Z,7.59
2019-03-09T14:38:10.872Z,7.37
2019-03-09T14:43:14.328Z,7.37
2019-03-09T14:48:17.664Z,7.16
2019-03-09T14:53:20.945Z,7.12
2019-03-09T14:58:26.022Z,6.73
2019-03-09T15:03:29.288Z,6.51
2019-03-09T15:08:32.504Z,6.22
2019-03-09T15:13:35.024Z,6.13
2019-03-09T15:18:37.601Z,5.95
2019-03-09T15:23:41.156Z,6.15
2019-03-09T15:28:44.430Z,6.05
2019-03-09T15:33:47.981Z,6.19
2019-03-09T15:38:51.482Z,5.99
2019-03-09T15:43:55.054Z,5.97
2019-03-09T15:48:58.152Z,6.03
2019-03-09T15:54:01.265Z,6.08
2019-03-09T15:59:04.911Z,6.21
2019-03-09T16:04:08.239Z,6.34
2019-03-09T16:09:11.604Z,7.15
2019-03-09T16:14:15.178Z,6.65
2019-03-09T16:19:19.700Z,6.79
2019-03-09T16:24:25.453Z,6.81
2019-03-09T16:29:28.709Z,6.85
2019-03-09T16:34:32.333Z,6.97
2019-03-09T16:39:35.845Z,6.87
2019-03-09T16:44:39.417Z,6.60
2019-03-09T16:49:42.752Z,6.22
2019-03-09T16:54:45.968Z,5.60
2019-03-09T16:59:49.228Z,4.61
2019-03-09T17:04:52.828Z,4.26
2019-03-09T17:09:55.747Z,3.84
2019-03-09T17:14:59.342Z,3.70
2019-03-09T17:20:03.123Z,3.60
2019-03-09T17:25:07.130Z,3.38
2019-03-09T17:30:12.473Z,3.38
2019-03-09T17:35:15.408Z,3.60
2019-03-09T17:40:18.023Z,3.61
2019-03-09T17:45:21.423Z,3.71
2019-03-09T17:50:24.731Z,3.72
2019-03-09T17:55:28.006Z,3.47
2019-03-09T18:00:42.063Z,3.51
2019-03-09T18:05:38.985Z,3.29
2019-03-09T18:10:45.021Z,3.43
2019-03-09T18:15:48.302Z,3.32
2019-03-09T18:20:51.382Z,3.47
2019-03-09T18:25:54.793Z,3.50
2019-03-09T18:30:58.437Z,3.19
2019-03-09T18:36:01.866Z,3.33
2019-03-09T18:41:05.237Z,3.16
2019-03-09T18:46:08.516Z,3.16
2019-03-09T18:51:12.089Z,3.24
2019-03-09T18:56:15.353Z,3.34
2019-03-09T19:01:18.772Z,3.18
2019-03-09T19:06:23.905Z,3.44
2019-03-09T19:11:31.357Z,3.41
2019-03-09T19:16:37.653Z,3.42
2019-03-09T19:21:42.411Z,3.63
2019-03-09T19:26:47.525Z,3.85
2019-03-09T19:31:53.462Z,3.96
2019-03-09T19:37:00.897Z,4.14
2019-03-09T19:42:06.867Z,4.27
2019-03-09T19:47:12.606Z,4.29
2019-03-09T19:52:18.112Z,4.34
2019-03-09T19:57:25.277Z,4.25
2019-03-09T20:02:32.394Z,4.21
2019-03-09T20:07:40.738Z,4.32
2019-03-09T20:12:48.545Z,4.21
2019-03-09T20:17:56.974Z,4.27
2019-03-09T20:23:03.262Z,4.24
2019-03-09T20:28:10.410Z,4.33
2019-03-09T20:33:18.572Z,4.30
2019-03-09T20:38:29.216Z,4.26
2019-03-09T20:43:37.786Z,4.44
2019-03-09T20:48:46.621Z,4.35
2019-03-09T20:53:52.679Z,4.31
2019-03-09T20:58:58.577Z,4.40
2019-03-09T21:04:06.417Z,4.34
2019-03-09T21:09:12.807Z,4.34
2019-03-09T21:14:19.202Z,4.56
2019-03-09T21:19:26.203Z,4.40
2019-03-09T21:24:30.540Z,4.19
2019-03-09T21:29:34.185Z,4.25
2019-03-09T21:34:38.163Z,4.13
2019-03-09T21:39:41.423Z,4.26
2019-03-09T21:44:44.692Z,4.20
2019-03-09T21:49:47.737Z,4.36
2019-03-09T21:54:50.743Z,4.53
2019-03-09T21:59:53.753Z,4.52
2019-03-09T22:04:56.331Z,4.59
2019-03-09T22:10:00.920Z,4.42
2019-03-09T22:15:04.712Z,4.46
2019-03-09T22:20:08.087Z,4.59
2019-03-09T22:25:11.778Z,4.52
2019-03-09T22:30:14.646Z,4.25
2019-03-09T22:35:18.303Z,4.51
2019-03-09T22:40:21.945Z,4.50
2019-03-09T22:45:25.291Z,4.60
2019-03-09T22:50:28.593Z,4.91
2019-03-09T22:55:31.800Z,4.96
2019-03-09T23:00:36.673Z,5.19
2019-03-09T23:05:39.632Z,5.33
2019-03-09T23:10:43.235Z,5.31
2019-03-09T23:15:45.884Z,5.52
2019-03-09T23:20:48.459Z,5.57
2019-03-09T23:25:51.393Z,6.10
2019-03-09T23:30:54.669Z,5.94
2019-03-09T23:35:57.861Z,5.71
2019-03-09T23:41:01.932Z,5.83
2019-03-09T23:46:05.144Z,5.88
2019-03-09T23:51:08.469Z,5.88
2019-03-09T23:56:13.621Z,5.84
